• Join FlightAware (Why Join?)
  • Login
  • US Flag 
07:48PM EST


 

Airport Tracker/Info


-or-


 

Live Flight TrackerFlight Track Log ✈ PDT4150 ✈ 23-Apr-2014 ✈ KBUF - KPHL

Flight Track Log - Related Links

Times and Time Zones

All times are in EDT time to prevent confusion due to time zone crossing. See the PDT4150 flight status page for this flight to view local times or setup timezone preferences in your user account.

Time Position Orientation Groundspeed Altitude Reporting Facility
EDT Latitude Longitude Course Direction KTS MPH feet Rate Location/Type
09:30AM 42.9000 -78.7667 216° Southwest 150 173 2,300  Level Buffalo TRACON
09:31AM 42.8286 -78.7808 188° South 193 222 4,500 1,260 Climbing Cleveland Center
09:32AM 42.7859 -78.5436 173° South  Level Estimated
09:32AM 42.7792 -78.7731 173° South 191 220 5,500  Level Cleveland Center
09:33AM 42.7343 -78.4815 174° South  Level Estimated
09:33AM 42.7225 -78.7606 171° South 193 222 7,000  Level Cleveland Center
09:34AM 42.6828 -78.4195 180° South  Level Estimated
09:34AM 42.6658 -78.7525 174° South 195 224 8,200  Level Cleveland Center
09:35AM 42.6075 -78.7458 175° South 200 230 9,500 1,140 Climbing Cleveland Center
09:36AM 42.5542 -78.7400 175° South 203 234 10,600 1,080 Climbing Cleveland Center
09:37AM 42.4958 -78.7278 171° South 210 242 11,800 960 Climbing Cleveland Center
09:39AM 42.4358 -78.7192 174° South 215 247 12,700 960 Climbing Cleveland Center
09:40AM 42.3694 -78.6850 159° South 227 261 13,800 1,020 Climbing Cleveland Center
09:41AM 42.3239 -78.6264 136° Southeast 228 262 14,800 900 Climbing Cleveland Center
09:42AM 42.2775 -78.5672 137° Southeast 228 262 15,700 600 Climbing Cleveland Center
09:43AM 42.2286 -78.5094 139° Southeast 231 266 16,100 180 Climbing Cleveland Center
09:44AM 42.1703 -78.4450 141° Southeast 255 293 16,100  Level Cleveland Center
09:45AM 42.1108 -78.3781 140° Southeast 272 313 16,100  Level Cleveland Center
09:46AM 42.0519 -78.3089 139° Southeast 277 319 16,100  Level Cleveland Center
09:47AM 41.9800 -78.2297 141° Southeast 278 320 16,100  Level Cleveland Center
09:48AM 41.9228 -78.1650 140° Southeast 281 323 16,100 -60 Level Cleveland Center
09:49AM 41.8625 -78.0925 138° Southeast 281 323 16,000 -60 Descending Cleveland Center
09:50AM 41.8047 -78.0200 137° Southeast 281 323 16,000  Level Cleveland Center
09:51AM 41.7458 -77.9519 139° Southeast 281 323 16,000  Level Cleveland Center
09:52AM 41.6856 -77.8842 140° Southeast 282 325 16,000  Level Cleveland Center
09:53AM 41.6131 -77.8006 139° Southeast 286 329 16,000  Level Cleveland Center
09:54AM 41.5528 -77.7292 138° Southeast 286 329 16,000  Level Cleveland Center
09:55AM 41.4925 -77.6597 139° Southeast 286 329 16,000  Level Cleveland Center
09:56AM 41.4303 -77.5892 140° Southeast 290 334 16,000  Level Cleveland Center
09:57AM 41.3703 -77.5208 139° Southeast 290 334 16,000  Level Cleveland Center
09:58AM 41.3103 -77.4483 138° Southeast 290 334 16,000  Level Cleveland Center
09:59AM 41.2386 -77.3631 138° Southeast 289 333 16,000  Level Cleveland Center
10:00AM 41.2031 -77.3233 140° Southeast 300 345 16,000  Level New York Center
10:01AM 41.1403 -77.2539 140° Southeast 295 339 16,000  Level New York Center
10:02AM 41.0814 -77.1878 140° Southeast 295 339 16,000  Level New York Center
10:03AM 41.0183 -77.1186 140° Southeast 295 339 16,000 -240 Level New York Center
10:04AM 40.9556 -77.0467 139° Southeast 295 339 15,600 -600 Descending New York Center
10:05AM 40.8906 -76.9747 140° Southeast 300 345 14,900 -660 Descending New York Center
10:06AM 40.8314 -76.9092 140° Southeast 300 345 14,300 -720 Descending New York Center
10:07AM 40.7586 -76.8258 139° Southeast 312 359 13,500 -780 Descending New York Center
10:08AM 40.6936 -76.7517 139° Southeast 312 359 12,800 -720 Descending New York Center
10:09AM 40.6342 -76.6892 141° Southeast 312 359 12,100 -900 Descending New York Center
10:10AM 40.5608 -76.6117 141° Southeast 312 359 11,100 -600 Descending New York Center
10:11AM 40.5106 -76.5308 129° Southeast 296 341 11,000 -60 Descending New York Center
10:12AM 40.4747 -76.4542 122° Southeast 273 314 11,000  Level New York Center
10:13AM 40.4331 -76.3664 122° Southeast 266 306 11,000  Level New York Center
10:14AM 40.3953 -76.2869 122° Southeast 271 312 11,000 -420 Level New York Center
10:15AM 40.3739 -76.2061 109° East 252 290 10,200 -900 Descending New York Center
10:16AM 40.3131 -76.1225 134° Southeast 279 321 9,200 -960 Descending New York Center
10:17AM 40.2625 -76.0422 130° Southeast 290 334 8,300 -1,020 Descending New York Center
10:18AM 40.2186 -75.9519 122° Southeast 290 334 7,200 -720 Descending New York Center
10:19AM 40.1744 -75.8672 124° Southeast 290 334 6,900 -120 Descending New York Center
10:20AM 40.1633 -75.7850 100° East 259 298 7,000  Climbing New York Center
10:21AM 40.1569 -75.6867 95° East 246 283 7,000  Level New York Center
10:22AM 40.1519 -75.6075 95° East 239 275 7,000  Level New York Center
10:23AM 40.1456 -75.5067 95° East 239 275 7,000  Level New York Center
10:24AM 40.1406 -75.4247 95° East 239 275 7,000  Level New York Center
10:25AM 40.1297 -75.3292 98° East 239 275 7,000  Level New York Center
10:25AM 40.1000 -75.2833 130° Southeast 270 311 7,000 -480 Level Philadelphia TRACON
10:26AM 40.0333 -75.2167 143° Southeast 278 320 6,200 -660 Descending Philadelphia TRACON
10:27AM 40.0000 -75.1333 118° Southeast 231 266 5,700 -720 Descending Philadelphia TRACON
10:28AM 40.0000 -75.0500 90° East 195 224 4,700 -900 Descending Philadelphia TRACON
10:29AM 39.9833 -75.0000 113° Southeast 221 254 4,000 -480 Descending Philadelphia TRACON
10:30AM 39.9167 -75.0167 191° South 192 221 3,800 -480 Descending Philadelphia TRACON
10:31AM 39.9167 -75.0833 270° West 159 183 3,100 -960 Descending Philadelphia TRACON
10:32AM 39.9000 -75.1333 247° West 173 199 2,100 -1,020 Descending Philadelphia TRACON
10:33AM 39.9000 -75.1667 270° West 99 114 1,200 -900 Descending Philadelphia TRACON
10:35AM 39.8667 -75.2333 241° Southwest  Level FlightAware Approximate